Rifle, CO (81650)

11:05 PM MDT on August 02, 2015 (GMT -0600)
Taughenbaugh Mesa | | Change Station
CLOSE
Current Station
Personal Weather Station
Location: Rifle, CO
Elevation: 5650 ft
Nearby Weather Stations

Elev 5650 ft 39.50 °N, 107.85 °W | Updated 1 second ago

Light Rain
Light Rain
59.9 °F
Feels Like 59.9 °F
N
0.0
Wind Variable Wind from ENE
Gusts 0.0 mph

Today
High -- | Low -- °F
--% Chance of Precip.
Yesterday
High -- | Low -- °F
Precip. -- in
6:11 AM 8:22 PM
Waning Gibbous, 89% visible
Pressure 30.01 in
Visibility 10.0 miles
Clouds Overcast 10000 ft
Dew Point 58 °F
Humidity 92%
Rainfall 0.23 in
Snow Depth Not available.
UV 0 out of 12
Pollen 4.70 out of 12
Air Quality Not available.
Flu Activity Not available.
METAR KRIL 030453Z AUTO 12004KT 10SM -RA OVC100 17/15 A3020 RMK AO2 SLP162 P0000 T01670150

More Conditions Fewer Conditions

Pressure 30.01 in
Visibility 10.0 miles
Clouds Overcast 10000 ft
Dew Point 58 °F
Humidity 92%
Rainfall 0.23 in
Snow Depth Not available.
UV 0 out of 12
Pollen 4.70 out of 12
Air Quality Not available.
Flu Activity Not available.
METAR KRIL 030453Z AUTO 12004KT 10SM -RA OVC100 17/15 A3020 RMK AO2 SLP162 P0000 T01670150

More Conditions Fewer Conditions

10-Day Weather Forecast

×

Almanac

Astronomy

Aug. 02, 2015 Rise Set
Actual Time
Civil Twilight
Nautical Twilight
Astronomical Twilight
Moon
Length of Visible Light
Length of Day
Tomorrow will be .
, % of the Moon is Illuminated

Today's Extremes

State Highs State Lows

Community

WunderPhotos

Upload Photos

1,843,585 photos uploaded!

WunderBlogs® & News

Nearby

Air Quality

  Air Quality AQ Index Pollutant
Not available.

Snow Depth

Station Depth Elevation

Earthquake Activity

City Distance Mag. Time & Date
Minimum magnitude displayed is 2.5.

Coastal Water Temperatures

Place Temperature

Stations

Nearby Weather Stations

Station Location Temp. Windchill Dew Point Humidity Wind Precip. Elev Updated Type
                   
Flood Watch / Flood Statement
Statement as of 11:04 PM MDT on August 02, 2015

... Flash Flood Watch is cancelled...

The Flash Flood Watch for portions of Colorado and Utah has been
cancelled. Rain has ended for much of the area. Light rain will
continue over the next few hours across La Plata and Archuleta
counties but will not pose a flooding threat.